sensor_id;sensor_type;location;lat;lon;timestamp;temperature;humidity
22491;DHT22;11412;50.802;4.350;2023-04-16T00:02:10;9.90;99.90
22491;DHT22;11412;50.802;4.350;2023-04-16T00:04:36;9.80;99.90
22491;DHT22;11412;50.802;4.350;2023-04-16T00:07:02;9.80;99.90
22491;DHT22;11412;50.802;4.350;2023-04-16T00:09:27;9.70;99.90
22491;DHT22;11412;50.802;4.350;2023-04-16T00:11:53;9.80;99.90
22491;DHT22;11412;50.802;4.350;2023-04-16T00:14:19;9.80;99.90
22491;DHT22;11412;50.802;4.350;2023-04-16T00:16:44;9.80;99.90
22491;DHT22;11412;50.802;4.350;2023-04-16T00:19:10;10.10;99.90
22491;DHT22;11412;50.802;4.350;2023-04-16T00:21:36;9.80;99.90
22491;DHT22;11412;50.802;4.350;2023-04-16T00:24:01;9.90;99.90
22491;DHT22;11412;50.802;4.350;2023-04-16T00:26:27;9.90;99.90
22491;DHT22;11412;50.802;4.350;2023-04-16T00:28:52;10.00;99.90
22491;DHT22;11412;50.802;4.350;2023-04-16T00:31:31;9.90;99.90
22491;DHT22;11412;50.802;4.350;2023-04-16T00:33:58;9.80;99.90
22491;DHT22;11412;50.802;4.350;2023-04-16T00:36:24;9.80;99.90
22491;DHT22;11412;50.802;4.350;2023-04-16T00:38:51;9.80;99.90
22491;DHT22;11412;50.802;4.350;2023-04-16T00:41:17;9.80;99.90
22491;DHT22;11412;50.802;4.350;2023-04-16T00:43:43;9.70;99.90
22491;DHT22;11412;50.802;4.350;2023-04-16T00:46:09;9.80;99.90
22491;DHT22;11412;50.802;4.350;2023-04-16T00:48:36;9.80;99.90
22491;DHT22;11412;50.802;4.350;2023-04-16T00:51:06;9.80;99.90
22491;DHT22;11412;50.802;4.350;2023-04-16T00:53:32;9.80;99.90
22491;DHT22;11412;50.802;4.350;2023-04-16T00:55:59;9.90;99.90
22491;DHT22;11412;50.802;4.350;2023-04-16T00:58:25;9.80;99.90
22491;DHT22;11412;50.802;4.350;2023-04-16T01:00:51;9.80;99.90
22491;DHT22;11412;50.802;4.350;2023-04-16T01:03:17;9.90;99.90
22491;DHT22;11412;50.802;4.350;2023-04-16T01:05:42;10.00;99.90
22491;DHT22;11412;50.802;4.350;2023-04-16T01:08:20;9.90;99.90
22491;DHT22;11412;50.802;4.350;2023-04-16T01:10:46;9.80;99.90
22491;DHT22;11412;50.802;4.350;2023-04-16T01:13:12;10.00;99.90
22491;DHT22;11412;50.802;4.350;2023-04-16T01:15:38;10.10;99.90
22491;DHT22;11412;50.802;4.350;2023-04-16T01:18:14;10.10;99.90
22491;DHT22;11412;50.802;4.350;2023-04-16T01:20:40;9.90;99.90
22491;DHT22;11412;50.802;4.350;2023-04-16T01:23:06;10.00;99.90
22491;DHT22;11412;50.802;4.350;2023-04-16T01:25:32;9.90;99.90
22491;DHT22;11412;50.802;4.350;2023-04-16T01:27:57;9.90;99.90
22491;DHT22;11412;50.802;4.350;2023-04-16T01:30:24;9.80;99.90
22491;DHT22;11412;50.802;4.350;2023-04-16T01:32:50;9.80;99.90
22491;DHT22;11412;50.802;4.350;2023-04-16T01:35:16;9.70;99.90
22491;DHT22;11412;50.802;4.350;2023-04-16T01:37:43;9.80;99.90
22491;DHT22;11412;50.802;4.350;2023-04-16T01:40:09;9.80;99.90
22491;DHT22;11412;50.802;4.350;2023-04-16T01:42:34;9.90;99.90
22491;DHT22;11412;50.802;4.350;2023-04-16T01:45:00;9.90;99.90
22491;DHT22;11412;50.802;4.350;2023-04-16T01:47:26;9.90;99.90
22491;DHT22;11412;50.802;4.350;2023-04-16T01:49:52;9.80;99.90
22491;DHT22;11412;50.802;4.350;2023-04-16T01:52:18;9.80;99.90
22491;DHT22;11412;50.802;4.350;2023-04-16T01:54:43;9.80;99.90
22491;DHT22;11412;50.802;4.350;2023-04-16T01:57:09;9.80;99.90
22491;DHT22;11412;50.802;4.350;2023-04-16T01:59:35;10.00;99.90
22491;DHT22;11412;50.802;4.350;2023-04-16T02:02:07;9.90;99.90
22491;DHT22;11412;50.802;4.350;2023-04-16T02:04:36;9.80;99.90
22491;DHT22;11412;50.802;4.350;2023-04-16T02:07:03;9.90;99.90
22491;DHT22;11412;50.802;4.350;2023-04-16T02:09:29;9.80;99.90
22491;DHT22;11412;50.802;4.350;2023-04-16T02:11:55;9.60;99.90
22491;DHT22;11412;50.802;4.350;2023-04-16T02:14:20;9.90;99.90
22491;DHT22;11412;50.802;4.350;2023-04-16T02:16:50;9.80;99.90
22491;DHT22;11412;50.802;4.350;2023-04-16T02:19:16;9.80;99.90
22491;DHT22;11412;50.802;4.350;2023-04-16T02:21:41;9.70;99.90
22491;DHT22;11412;50.802;4.350;2023-04-16T02:24:07;9.70;99.90
22491;DHT22;11412;50.802;4.350;2023-04-16T02:26:32;9.70;99.90
22491;DHT22;11412;50.802;4.350;2023-04-16T02:28:58;9.80;99.90
22491;DHT22;11412;50.802;4.350;2023-04-16T02:31:24;9.90;99.90
22491;DHT22;11412;50.802;4.350;2023-04-16T02:33:49;10.00;99.90
22491;DHT22;11412;50.802;4.350;2023-04-16T02:36:15;9.80;99.90
22491;DHT22;11412;50.802;4.350;2023-04-16T02:38:41;9.90;99.90
22491;DHT22;11412;50.802;4.350;2023-04-16T02:41:06;9.80;99.90
22491;DHT22;11412;50.802;4.350;2023-04-16T02:43:33;9.70;99.90
22491;DHT22;11412;50.802;4.350;2023-04-16T02:45:59;9.70;99.90
22491;DHT22;11412;50.802;4.350;2023-04-16T02:48:24;9.70;99.90
22491;DHT22;11412;50.802;4.350;2023-04-16T02:50:50;9.60;99.90
22491;DHT22;11412;50.802;4.350;2023-04-16T02:53:16;9.70;99.90
22491;DHT22;11412;50.802;4.350;2023-04-16T02:55:50;9.70;99.90
22491;DHT22;11412;50.802;4.350;2023-04-16T02:58:23;9.70;99.90
22491;DHT22;11412;50.802;4.350;2023-04-16T03:00:50;9.70;99.90
22491;DHT22;11412;50.802;4.350;2023-04-16T03:03:16;9.80;99.90
22491;DHT22;11412;50.802;4.350;2023-04-16T03:05:43;9.80;99.90
22491;DHT22;11412;50.802;4.350;2023-04-16T03:08:09;9.90;99.90
22491;DHT22;11412;50.802;4.350;2023-04-16T03:10:36;9.80;99.90
22491;DHT22;11412;50.802;4.350;2023-04-16T03:13:02;9.90;99.90
22491;DHT22;11412;50.802;4.350;2023-04-16T03:15:29;9.80;99.90
22491;DHT22;11412;50.802;4.350;2023-04-16T03:17:54;9.90;99.90
22491;DHT22;11412;50.802;4.350;2023-04-16T03:20:20;9.90;99.90
22491;DHT22;11412;50.802;4.350;2023-04-16T03:22:46;9.90;99.90
22491;DHT22;11412;50.802;4.350;2023-04-16T03:25:13;9.80;99.90
22491;DHT22;11412;50.802;4.350;2023-04-16T03:27:39;10.00;99.90
22491;DHT22;11412;50.802;4.350;2023-04-16T03:30:10;9.80;99.90
22491;DHT22;11412;50.802;4.350;2023-04-16T03:32:36;9.70;99.90
22491;DHT22;11412;50.802;4.350;2023-04-16T03:35:03;9.70;99.90
22491;DHT22;11412;50.802;4.350;2023-04-16T03:37:29;9.80;99.90
22491;DHT22;11412;50.802;4.350;2023-04-16T03:39:55;9.70;99.90
22491;DHT22;11412;50.802;4.350;2023-04-16T03:42:20;9.90;99.90
22491;DHT22;11412;50.802;4.350;2023-04-16T03:44:46;9.80;99.90
22491;DHT22;11412;50.802;4.350;2023-04-16T03:47:11;9.80;99.90
22491;DHT22;11412;50.802;4.350;2023-04-16T03:49:37;9.80;99.90
22491;DHT22;11412;50.802;4.350;2023-04-16T03:52:03;9.80;99.90
22491;DHT22;11412;50.802;4.350;2023-04-16T03:54:29;9.80;99.90
22491;DHT22;11412;50.802;4.350;2023-04-16T03:56:54;9.80;99.90
22491;DHT22;11412;50.802;4.350;2023-04-16T03:59:21;9.80;99.90
22491;DHT22;11412;50.802;4.350;2023-04-16T04:01:47;9.80;99.90
22491;DHT22;11412;50.802;4.350;2023-04-16T04:04:12;9.80;99.90
22491;DHT22;11412;50.802;4.350;2023-04-16T04:06:38;10.00;99.90
22491;DHT22;11412;50.802;4.350;2023-04-16T04:09:04;10.00;99.90
22491;DHT22;11412;50.802;4.350;2023-04-16T04:11:30;10.00;99.90
22491;DHT22;11412;50.802;4.350;2023-04-16T04:13:55;10.00;99.90
22491;DHT22;11412;50.802;4.350;2023-04-16T04:16:21;9.90;99.90
22491;DHT22;11412;50.802;4.350;2023-04-16T04:18:47;10.00;99.90
22491;DHT22;11412;50.802;4.350;2023-04-16T04:21:12;9.80;99.90
22491;DHT22;11412;50.802;4.350;2023-04-16T04:23:38;9.70;99.90
22491;DHT22;11412;50.802;4.350;2023-04-16T04:26:05;9.60;99.90
22491;DHT22;11412;50.802;4.350;2023-04-16T04:28:32;9.60;99.90
22491;DHT22;11412;50.802;4.350;2023-04-16T04:30:58;9.70;99.90
22491;DHT22;11412;50.802;4.350;2023-04-16T04:33:27;9.40;99.90
22491;DHT22;11412;50.802;4.350;2023-04-16T04:35:54;9.40;99.90
22491;DHT22;11412;50.802;4.350;2023-04-16T04:38:20;9.50;99.90
22491;DHT22;11412;50.802;4.350;2023-04-16T04:40:50;9.40;99.90
22491;DHT22;11412;50.802;4.350;2023-04-16T04:43:17;9.40;99.90
22491;DHT22;11412;50.802;4.350;2023-04-16T04:45:42;9.40;99.90
22491;DHT22;11412;50.802;4.350;2023-04-16T04:48:08;9.40;99.90
22491;DHT22;11412;50.802;4.350;2023-04-16T04:50:34;9.50;99.90
22491;DHT22;11412;50.802;4.350;2023-04-16T04:53:00;9.50;99.90
22491;DHT22;11412;50.802;4.350;2023-04-16T04:55:26;9.40;99.90
22491;DHT22;11412;50.802;4.350;2023-04-16T04:57:51;9.40;99.90
22491;DHT22;11412;50.802;4.350;2023-04-16T05:00:17;9.40;99.90
22491;DHT22;11412;50.802;4.350;2023-04-16T05:02:43;9.40;99.90
22491;DHT22;11412;50.802;4.350;2023-04-16T05:05:08;9.30;99.90
22491;DHT22;11412;50.802;4.350;2023-04-16T05:07:34;9.40;99.90
22491;DHT22;11412;50.802;4.350;2023-04-16T05:10:00;9.30;99.90
22491;DHT22;11412;50.802;4.350;2023-04-16T05:12:25;9.40;99.90
22491;DHT22;11412;50.802;4.350;2023-04-16T05:14:51;9.50;99.90
22491;DHT22;11412;50.802;4.350;2023-04-16T05:17:17;9.40;99.90
22491;DHT22;11412;50.802;4.350;2023-04-16T05:19:42;9.40;99.90
22491;DHT22;11412;50.802;4.350;2023-04-16T05:22:08;9.50;99.90
22491;DHT22;11412;50.802;4.350;2023-04-16T05:24:34;9.50;99.90
22491;DHT22;11412;50.802;4.350;2023-04-16T05:26:59;9.40;99.90
22491;DHT22;11412;50.802;4.350;2023-04-16T05:29:26;9.30;99.90
22491;DHT22;11412;50.802;4.350;2023-04-16T05:31:52;9.30;99.90
22491;DHT22;11412;50.802;4.350;2023-04-16T05:34:17;9.40;99.90
22491;DHT22;11412;50.802;4.350;2023-04-16T05:36:43;9.30;99.90
22491;DHT22;11412;50.802;4.350;2023-04-16T05:39:08;9.40;99.90
22491;DHT22;11412;50.802;4.350;2023-04-16T05:41:35;9.40;99.90
22491;DHT22;11412;50.802;4.350;2023-04-16T05:44:01;9.40;99.90
22491;DHT22;11412;50.802;4.350;2023-04-16T05:46:26;9.50;99.90
22491;DHT22;11412;50.802;4.350;2023-04-16T05:48:52;9.50;99.90
22491;DHT22;11412;50.802;4.350;2023-04-16T05:51:18;9.40;99.90
22491;DHT22;11412;50.802;4.350;2023-04-16T05:53:44;9.50;99.90
22491;DHT22;11412;50.802;4.350;2023-04-16T05:56:10;9.40;99.90
22491;DHT22;11412;50.802;4.350;2023-04-16T05:58:35;9.60;99.90
22491;DHT22;11412;50.802;4.350;2023-04-16T06:01:01;9.60;99.90
22491;DHT22;11412;50.802;4.350;2023-04-16T06:03:27;9.70;99.90
22491;DHT22;11412;50.802;4.350;2023-04-16T06:05:53;9.70;99.90
22491;DHT22;11412;50.802;4.350;2023-04-16T06:08:20;9.50;99.90
22491;DHT22;11412;50.802;4.350;2023-04-16T06:10:46;9.50;99.90
22491;DHT22;11412;50.802;4.350;2023-04-16T06:13:12;9.50;99.90
22491;DHT22;11412;50.802;4.350;2023-04-16T06:15:38;9.50;99.90
22491;DHT22;11412;50.802;4.350;2023-04-16T06:18:03;9.50;99.90
22491;DHT22;11412;50.802;4.350;2023-04-16T06:20:29;9.60;99.90
22491;DHT22;11412;50.802;4.350;2023-04-16T06:22:55;9.40;99.90
22491;DHT22;11412;50.802;4.350;2023-04-16T06:25:21;9.40;99.90
22491;DHT22;11412;50.802;4.350;2023-04-16T06:27:47;9.40;99.90
22491;DHT22;11412;50.802;4.350;2023-04-16T06:30:14;9.40;99.90
22491;DHT22;11412;50.802;4.350;2023-04-16T06:32:40;9.40;99.90
22491;DHT22;11412;50.802;4.350;2023-04-16T06:35:06;9.50;99.90
22491;DHT22;11412;50.802;4.350;2023-04-16T06:37:32;9.50;99.90
22491;DHT22;11412;50.802;4.350;2023-04-16T06:39:58;9.50;99.90
22491;DHT22;11412;50.802;4.350;2023-04-16T06:42:23;9.40;99.90
22491;DHT22;11412;50.802;4.350;2023-04-16T06:44:49;9.40;99.90
22491;DHT22;11412;50.802;4.350;2023-04-16T06:47:15;9.40;99.90
22491;DHT22;11412;50.802;4.350;2023-04-16T06:49:41;9.40;99.90
22491;DHT22;11412;50.802;4.350;2023-04-16T06:52:06;9.30;99.90
22491;DHT22;11412;50.802;4.350;2023-04-16T06:54:32;9.40;99.90
22491;DHT22;11412;50.802;4.350;2023-04-16T06:56:58;9.30;99.90
22491;DHT22;11412;50.802;4.350;2023-04-16T06:59:24;9.30;99.90
22491;DHT22;11412;50.802;4.350;2023-04-16T07:01:50;9.20;99.90
22491;DHT22;11412;50.802;4.350;2023-04-16T07:04:16;9.30;99.90
22491;DHT22;11412;50.802;4.350;2023-04-16T07:06:42;9.20;99.90
22491;DHT22;11412;50.802;4.350;2023-04-16T07:09:08;9.20;99.90
22491;DHT22;11412;50.802;4.350;2023-04-16T07:11:33;9.10;99.90
22491;DHT22;11412;50.802;4.350;2023-04-16T07:13:59;9.30;99.90
22491;DHT22;11412;50.802;4.350;2023-04-16T07:16:25;9.10;99.90
22491;DHT22;11412;50.802;4.350;2023-04-16T07:18:51;9.20;99.90
22491;DHT22;11412;50.802;4.350;2023-04-16T07:21:16;9.40;99.90
22491;DHT22;11412;50.802;4.350;2023-04-16T07:23:42;9.30;99.90
22491;DHT22;11412;50.802;4.350;2023-04-16T07:26:08;9.30;99.90
22491;DHT22;11412;50.802;4.350;2023-04-16T07:28:34;9.40;99.90
22491;DHT22;11412;50.802;4.350;2023-04-16T07:31:00;9.50;99.90
22491;DHT22;11412;50.802;4.350;2023-04-16T07:33:26;9.50;99.90
22491;DHT22;11412;50.802;4.350;2023-04-16T07:35:51;9.60;99.90
22491;DHT22;11412;50.802;4.350;2023-04-16T07:38:17;9.60;99.90
22491;DHT22;11412;50.802;4.350;2023-04-16T07:40:43;9.60;99.90
22491;DHT22;11412;50.802;4.350;2023-04-16T07:43:09;9.50;99.90
22491;DHT22;11412;50.802;4.350;2023-04-16T07:45:35;9.50;99.90
22491;DHT22;11412;50.802;4.350;2023-04-16T07:48:00;9.50;99.90
22491;DHT22;11412;50.802;4.350;2023-04-16T07:50:26;9.70;99.90
22491;DHT22;11412;50.802;4.350;2023-04-16T07:52:52;9.60;99.90
22491;DHT22;11412;50.802;4.350;2023-04-16T07:55:18;9.60;99.90
22491;DHT22;11412;50.802;4.350;2023-04-16T07:57:44;9.60;99.90
22491;DHT22;11412;50.802;4.350;2023-04-16T08:00:10;9.50;99.90
22491;DHT22;11412;50.802;4.350;2023-04-16T08:02:36;9.50;99.90
22491;DHT22;11412;50.802;4.350;2023-04-16T08:05:02;9.80;99.90
22491;DHT22;11412;50.802;4.350;2023-04-16T08:07:28;9.60;99.90
22491;DHT22;11412;50.802;4.350;2023-04-16T08:09:54;9.60;99.90
22491;DHT22;11412;50.802;4.350;2023-04-16T08:12:20;9.80;99.90
22491;DHT22;11412;50.802;4.350;2023-04-16T08:14:46;9.70;99.90
22491;DHT22;11412;50.802;4.350;2023-04-16T08:17:12;9.70;99.90
22491;DHT22;11412;50.802;4.350;2023-04-16T08:19:38;9.80;99.90
22491;DHT22;11412;50.802;4.350;2023-04-16T08:22:03;9.90;99.90
22491;DHT22;11412;50.802;4.350;2023-04-16T08:24:29;9.90;99.90
22491;DHT22;11412;50.802;4.350;2023-04-16T08:26:55;9.80;99.90
22491;DHT22;11412;50.802;4.350;2023-04-16T08:29:20;9.70;99.90
22491;DHT22;11412;50.802;4.350;2023-04-16T08:31:46;9.80;99.90
22491;DHT22;11412;50.802;4.350;2023-04-16T08:34:12;9.80;99.90
22491;DHT22;11412;50.802;4.350;2023-04-16T08:36:38;9.90;99.90
22491;DHT22;11412;50.802;4.350;2023-04-16T08:39:05;9.90;99.90
22491;DHT22;11412;50.802;4.350;2023-04-16T08:41:33;10.00;99.90
22491;DHT22;11412;50.802;4.350;2023-04-16T08:44:07;10.00;99.90
22491;DHT22;11412;50.802;4.350;2023-04-16T08:46:36;9.90;99.90
22491;DHT22;11412;50.802;4.350;2023-04-16T08:49:05;9.90;99.90
22491;DHT22;11412;50.802;4.350;2023-04-16T08:51:34;10.10;99.90
22491;DHT22;11412;50.802;4.350;2023-04-16T08:54:07;10.10;99.90
22491;DHT22;11412;50.802;4.350;2023-04-16T08:56:35;10.10;99.90
22491;DHT22;11412;50.802;4.350;2023-04-16T08:59:02;10.00;99.90
22491;DHT22;11412;50.802;4.350;2023-04-16T09:01:31;10.20;99.90
22491;DHT22;11412;50.802;4.350;2023-04-16T09:03:58;10.00;99.90
22491;DHT22;11412;50.802;4.350;2023-04-16T09:06:27;9.90;99.90
22491;DHT22;11412;50.802;4.350;2023-04-16T09:08:53;9.80;99.90
22491;DHT22;11412;50.802;4.350;2023-04-16T09:11:19;9.80;99.90
22491;DHT22;11412;50.802;4.350;2023-04-16T09:13:46;9.90;99.90
22491;DHT22;11412;50.802;4.350;2023-04-16T09:16:13;9.70;99.90
22491;DHT22;11412;50.802;4.350;2023-04-16T09:18:39;9.80;99.90
22491;DHT22;11412;50.802;4.350;2023-04-16T09:21:08;10.10;99.90
22491;DHT22;11412;50.802;4.350;2023-04-16T09:23:36;10.00;99.90
22491;DHT22;11412;50.802;4.350;2023-04-16T09:26:03;9.90;99.90
22491;DHT22;11412;50.802;4.350;2023-04-16T09:28:47;10.00;99.90
22491;DHT22;11412;50.802;4.350;2023-04-16T09:31:17;10.00;99.90
22491;DHT22;11412;50.802;4.350;2023-04-16T09:33:45;10.10;99.90
22491;DHT22;11412;50.802;4.350;2023-04-16T09:36:25;10.00;99.90
22491;DHT22;11412;50.802;4.350;2023-04-16T09:38:53;10.00;99.90
22491;DHT22;11412;50.802;4.350;2023-04-16T09:41:26;9.80;99.90
22491;DHT22;11412;50.802;4.350;2023-04-16T09:44:00;9.80;99.90
22491;DHT22;11412;50.802;4.350;2023-04-16T09:46:31;9.90;99.90
22491;DHT22;11412;50.802;4.350;2023-04-16T09:49:12;10.10;99.90
22491;DHT22;11412;50.802;4.350;2023-04-16T09:51:43;10.20;99.90
22491;DHT22;11412;50.802;4.350;2023-04-16T09:54:09;10.10;99.90
22491;DHT22;11412;50.802;4.350;2023-04-16T09:56:45;10.20;99.90
22491;DHT22;11412;50.802;4.350;2023-04-16T09:59:20;10.00;99.90
22491;DHT22;11412;50.802;4.350;2023-04-16T10:01:47;10.00;99.90
22491;DHT22;11412;50.802;4.350;2023-04-16T10:04:14;10.20;99.90
22491;DHT22;11412;50.802;4.350;2023-04-16T10:06:40;10.30;99.90
22491;DHT22;11412;50.802;4.350;2023-04-16T10:09:07;10.10;99.90
22491;DHT22;11412;50.802;4.350;2023-04-16T10:11:33;10.30;99.90
22491;DHT22;11412;50.802;4.350;2023-04-16T10:13:59;10.20;99.90
22491;DHT22;11412;50.802;4.350;2023-04-16T10:16:25;10.20;99.90
22491;DHT22;11412;50.802;4.350;2023-04-16T10:18:52;10.20;99.90
22491;DHT22;11412;50.802;4.350;2023-04-16T10:21:18;10.20;99.90
22491;DHT22;11412;50.802;4.350;2023-04-16T10:23:44;10.20;99.90
22491;DHT22;11412;50.802;4.350;2023-04-16T10:26:10;10.20;99.90
22491;DHT22;11412;50.802;4.350;2023-04-16T10:28:36;10.20;99.90
22491;DHT22;11412;50.802;4.350;2023-04-16T10:31:06;10.10;99.90
22491;DHT22;11412;50.802;4.350;2023-04-16T10:33:38;10.10;99.90
22491;DHT22;11412;50.802;4.350;2023-04-16T10:36:14;10.10;99.90
22491;DHT22;11412;50.802;4.350;2023-04-16T10:38:45;10.00;99.90
22491;DHT22;11412;50.802;4.350;2023-04-16T10:41:11;10.20;99.90
22491;DHT22;11412;50.802;4.350;2023-04-16T10:43:44;10.10;99.90
22491;DHT22;11412;50.802;4.350;2023-04-16T10:46:31;10.20;99.90
22491;DHT22;11412;50.802;4.350;2023-04-16T10:49:02;10.00;99.90
22491;DHT22;11412;50.802;4.350;2023-04-16T10:51:36;10.00;99.90
22491;DHT22;11412;50.802;4.350;2023-04-16T10:56:43;10.10;99.90
22491;DHT22;11412;50.802;4.350;2023-04-16T10:59:10;10.10;99.90
22491;DHT22;11412;50.802;4.350;2023-04-16T11:01:41;10.10;99.90
22491;DHT22;11412;50.802;4.350;2023-04-16T11:07:13;10.00;99.90
22491;DHT22;11412;50.802;4.350;2023-04-16T11:09:59;10.10;99.90
22491;DHT22;11412;50.802;4.350;2023-04-16T11:12:36;10.20;99.90
22491;DHT22;11412;50.802;4.350;2023-04-16T11:15:11;10.20;99.90
22491;DHT22;11412;50.802;4.350;2023-04-16T11:17:48;10.10;99.90
22491;DHT22;11412;50.802;4.350;2023-04-16T11:20:19;10.20;99.90
22491;DHT22;11412;50.802;4.350;2023-04-16T11:22:46;10.30;99.90
22491;DHT22;11412;50.802;4.350;2023-04-16T11:25:21;10.40;99.90
22491;DHT22;11412;50.802;4.350;2023-04-16T11:27:48;10.40;99.90
22491;DHT22;11412;50.802;4.350;2023-04-16T11:30:14;10.40;99.90
22491;DHT22;11412;50.802;4.350;2023-04-16T11:32:39;10.50;99.90
22491;DHT22;11412;50.802;4.350;2023-04-16T11:35:16;10.50;99.90
22491;DHT22;11412;50.802;4.350;2023-04-16T11:37:42;10.50;99.90
22491;DHT22;11412;50.802;4.350;2023-04-16T11:40:08;10.50;99.90
22491;DHT22;11412;50.802;4.350;2023-04-16T11:42:38;10.40;99.90
22491;DHT22;11412;50.802;4.350;2023-04-16T11:45:08;10.50;99.90
22491;DHT22;11412;50.802;4.350;2023-04-16T11:47:48;10.50;99.90
22491;DHT22;11412;50.802;4.350;2023-04-16T11:50:18;10.50;99.90
22491;DHT22;11412;50.802;4.350;2023-04-16T11:52:44;10.50;99.90
22491;DHT22;11412;50.802;4.350;2023-04-16T11:55:10;10.60;99.90
22491;DHT22;11412;50.802;4.350;2023-04-16T11:57:36;10.70;99.90
22491;DHT22;11412;50.802;4.350;2023-04-16T12:00:02;10.60;99.90
22491;DHT22;11412;50.802;4.350;2023-04-16T12:05:27;10.50;99.90
22491;DHT22;11412;50.802;4.350;2023-04-16T12:07:59;10.60;99.90
22491;DHT22;11412;50.802;4.350;2023-04-16T12:10:25;10.80;99.90
22491;DHT22;11412;50.802;4.350;2023-04-16T12:12:52;10.70;99.90
22491;DHT22;11412;50.802;4.350;2023-04-16T12:15:18;10.90;99.90
22491;DHT22;11412;50.802;4.350;2023-04-16T12:17:44;10.80;99.90
22491;DHT22;11412;50.802;4.350;2023-04-16T12:20:12;10.80;99.90
22491;DHT22;11412;50.802;4.350;2023-04-16T12:22:39;10.90;99.90
22491;DHT22;11412;50.802;4.350;2023-04-16T12:25:09;10.90;99.90
22491;DHT22;11412;50.802;4.350;2023-04-16T12:27:48;10.80;99.90
22491;DHT22;11412;50.802;4.350;2023-04-16T12:30:18;10.80;99.90
22491;DHT22;11412;50.802;4.350;2023-04-16T12:32:46;10.80;99.90
22491;DHT22;11412;50.802;4.350;2023-04-16T12:35:12;10.90;99.90
22491;DHT22;11412;50.802;4.350;2023-04-16T12:37:38;10.80;99.90
22491;DHT22;11412;50.802;4.350;2023-04-16T12:40:05;10.60;99.90
22491;DHT22;11412;50.802;4.350;2023-04-16T12:42:31;10.70;99.90
22491;DHT22;11412;50.802;4.350;2023-04-16T12:45:04;10.80;99.90
22491;DHT22;11412;50.802;4.350;2023-04-16T12:47:33;10.80;99.90
22491;DHT22;11412;50.802;4.350;2023-04-16T12:49:59;10.60;99.90
22491;DHT22;11412;50.802;4.350;2023-04-16T12:52:24;10.80;99.90
22491;DHT22;11412;50.802;4.350;2023-04-16T12:54:51;10.90;99.90
22491;DHT22;11412;50.802;4.350;2023-04-16T12:57:17;11.00;99.90
22491;DHT22;11412;50.802;4.350;2023-04-16T12:59:43;11.20;99.90
22491;DHT22;11412;50.802;4.350;2023-04-16T13:02:11;11.20;99.90
22491;DHT22;11412;50.802;4.350;2023-04-16T13:04:37;11.30;99.90
22491;DHT22;11412;50.802;4.350;2023-04-16T13:07:02;11.30;99.90
22491;DHT22;11412;50.802;4.350;2023-04-16T13:09:28;10.80;99.90
22491;DHT22;11412;50.802;4.350;2023-04-16T13:11:54;10.90;99.90
22491;DHT22;11412;50.802;4.350;2023-04-16T13:14:20;10.90;99.90
22491;DHT22;11412;50.802;4.350;2023-04-16T13:16:46;11.00;99.90
22491;DHT22;11412;50.802;4.350;2023-04-16T13:19:11;11.10;99.90
22491;DHT22;11412;50.802;4.350;2023-04-16T13:21:37;11.20;99.90
22491;DHT22;11412;50.802;4.350;2023-04-16T13:24:03;11.30;99.90
22491;DHT22;11412;50.802;4.350;2023-04-16T13:26:29;11.00;99.90
22491;DHT22;11412;50.802;4.350;2023-04-16T13:28:54;11.10;99.90
22491;DHT22;11412;50.802;4.350;2023-04-16T13:31:20;11.30;99.90
22491;DHT22;11412;50.802;4.350;2023-04-16T13:33:47;11.30;99.90
22491;DHT22;11412;50.802;4.350;2023-04-16T13:36:13;11.20;99.90
22491;DHT22;11412;50.802;4.350;2023-04-16T13:38:38;11.20;99.90
22491;DHT22;11412;50.802;4.350;2023-04-16T13:41:04;11.30;99.90
22491;DHT22;11412;50.802;4.350;2023-04-16T13:43:33;11.40;99.90
22491;DHT22;11412;50.802;4.350;2023-04-16T13:45:59;11.40;99.90
22491;DHT22;11412;50.802;4.350;2023-04-16T13:48:25;11.30;99.90
22491;DHT22;11412;50.802;4.350;2023-04-16T13:50:52;11.40;99.90
22491;DHT22;11412;50.802;4.350;2023-04-16T13:53:17;11.40;99.90
22491;DHT22;11412;50.802;4.350;2023-04-16T13:55:43;11.40;99.90
22491;DHT22;11412;50.802;4.350;2023-04-16T13:58:09;11.40;99.90
22491;DHT22;11412;50.802;4.350;2023-04-16T14:00:39;11.40;99.90
22491;DHT22;11412;50.802;4.350;2023-04-16T14:03:04;11.50;99.90
22491;DHT22;11412;50.802;4.350;2023-04-16T14:05:31;11.50;99.90
22491;DHT22;11412;50.802;4.350;2023-04-16T14:07:57;11.40;99.90
22491;DHT22;11412;50.802;4.350;2023-04-16T14:10:22;11.40;99.90
22491;DHT22;11412;50.802;4.350;2023-04-16T14:12:48;11.50;99.90
22491;DHT22;11412;50.802;4.350;2023-04-16T14:15:14;11.40;99.90
22491;DHT22;11412;50.802;4.350;2023-04-16T14:17:41;11.40;99.90
22491;DHT22;11412;50.802;4.350;2023-04-16T14:20:08;11.50;99.90
22491;DHT22;11412;50.802;4.350;2023-04-16T14:22:34;11.70;99.90
22491;DHT22;11412;50.802;4.350;2023-04-16T14:25:00;11.90;99.90
22491;DHT22;11412;50.802;4.350;2023-04-16T14:27:27;11.80;99.90
22491;DHT22;11412;50.802;4.350;2023-04-16T14:29:53;11.70;99.90
22491;DHT22;11412;50.802;4.350;2023-04-16T14:32:19;11.80;99.90
22491;DHT22;11412;50.802;4.350;2023-04-16T14:34:45;12.00;99.90
22491;DHT22;11412;50.802;4.350;2023-04-16T14:37:11;12.00;99.90
22491;DHT22;11412;50.802;4.350;2023-04-16T14:39:37;12.20;99.90
22491;DHT22;11412;50.802;4.350;2023-04-16T14:42:04;12.20;99.90
22491;DHT22;11412;50.802;4.350;2023-04-16T14:44:31;12.20;99.90
22491;DHT22;11412;50.802;4.350;2023-04-16T14:46:56;12.00;99.90
22491;DHT22;11412;50.802;4.350;2023-04-16T14:49:22;12.10;99.90
22491;DHT22;11412;50.802;4.350;2023-04-16T14:51:48;12.20;99.90
22491;DHT22;11412;50.802;4.350;2023-04-16T14:54:14;12.20;99.90
22491;DHT22;11412;50.802;4.350;2023-04-16T14:56:40;12.10;99.90
22491;DHT22;11412;50.802;4.350;2023-04-16T14:59:06;12.10;99.90
22491;DHT22;11412;50.802;4.350;2023-04-16T15:01:32;12.10;99.90
22491;DHT22;11412;50.802;4.350;2023-04-16T15:03:58;12.10;99.90
22491;DHT22;11412;50.802;4.350;2023-04-16T15:06:24;11.90;99.90
22491;DHT22;11412;50.802;4.350;2023-04-16T15:08:51;11.80;99.90
22491;DHT22;11412;50.802;4.350;2023-04-16T15:11:16;11.90;99.90
22491;DHT22;11412;50.802;4.350;2023-04-16T15:13:42;11.70;99.90
22491;DHT22;11412;50.802;4.350;2023-04-16T15:16:08;11.70;99.90
22491;DHT22;11412;50.802;4.350;2023-04-16T15:18:34;11.80;99.90
22491;DHT22;11412;50.802;4.350;2023-04-16T15:21:00;11.60;99.90
22491;DHT22;11412;50.802;4.350;2023-04-16T15:23:25;11.70;99.90
22491;DHT22;11412;50.802;4.350;2023-04-16T15:25:51;11.70;99.90
22491;DHT22;11412;50.802;4.350;2023-04-16T15:28:17;11.70;99.90
22491;DHT22;11412;50.802;4.350;2023-04-16T15:30:42;11.50;99.90
22491;DHT22;11412;50.802;4.350;2023-04-16T15:33:10;11.70;99.90
22491;DHT22;11412;50.802;4.350;2023-04-16T15:35:36;11.40;99.90
22491;DHT22;11412;50.802;4.350;2023-04-16T15:38:03;11.60;99.90
22491;DHT22;11412;50.802;4.350;2023-04-16T15:40:29;11.70;99.90
22491;DHT22;11412;50.802;4.350;2023-04-16T15:42:55;11.70;99.90
22491;DHT22;11412;50.802;4.350;2023-04-16T15:45:20;11.70;99.90
22491;DHT22;11412;50.802;4.350;2023-04-16T15:47:46;11.60;99.90